Time;durP1;ratioP1;P1;durP2;ratioP2;P2;SDS_P1;SDS_P2;PMS_P1;PMS_P2;Temp;Humidity;BMP_temperature;BMP_pressure;BME280_temperature;BME280_humidity;BME280_pressure;Samples;Min_cycle;Max_cycle;Signal;HPM_P1;HPM_P2
2023/10/10 00:00:54;;;;;;;13.10;2.78;;;;;;;16.01;100.00;97628.63;5073775;28;20438;-76
2023/10/10 00:03:21;;;;;;;11.65;2.58;;;;;;;16.09;100.00;97642.31;5073798;28;20036;-76
2023/10/10 00:05:46;;;;;;;8.38;2.72;;;;;;;16.06;100.00;97634.47;5072913;28;20115;-74
2023/10/10 00:08:12;;;;;;;9.45;2.90;;;;;;;16.01;100.00;97625.91;5072670;28;20091;-75
2023/10/10 00:10:50;;;;;;;8.38;2.42;;;;;;;15.94;100.00;97636.34;5072520;28;20504;-75
2023/10/10 00:13:19;;;;;;;15.02;3.13;;;;;;;16.01;100.00;97642.09;5072322;28;20047;-74
2023/10/10 00:15:55;;;;;;;8.80;3.17;;;;;;;16.03;100.00;97640.13;5072362;28;20440;-74
2023/10/10 00:18:21;;;;;;;16.73;3.85;;;;;;;16.00;100.00;97633.16;5073481;28;20447;-75
2023/10/10 00:21:09;;;;;;;10.43;3.83;;;;;;;15.99;100.00;97646.78;5072296;28;20071;-75
2023/10/10 00:23:44;;;;;;;7.88;2.67;;;;;;;16.03;100.00;97657.19;5069856;28;20536;-75
2023/10/10 00:26:14;;;;;;;10.63;3.10;;;;;;;16.03;100.00;97664.41;5072263;28;20112;-75
2023/10/10 00:28:42;;;;;;;8.73;2.60;;;;;;;16.09;100.00;97647.72;5072699;28;20479;-75
2023/10/10 00:31:12;;;;;;;13.35;2.95;;;;;;;16.09;100.00;97651.28;5072466;28;20115;-75
2023/10/10 00:33:38;;;;;;;13.02;3.00;;;;;;;16.09;100.00;97645.03;5072150;28;20024;-74
2023/10/10 00:36:20;;;;;;;10.02;2.80;;;;;;;16.11;100.00;97651.16;5072103;28;20029;-75
2023/10/10 00:38:54;;;;;;;11.32;3.00;;;;;;;16.17;100.00;97647.97;5069743;28;20086;-75
2023/10/10 00:41:22;;;;;;;11.65;2.90;;;;;;;16.25;100.00;97656.28;5071979;28;20028;-75
2023/10/10 00:43:49;;;;;;;10.88;2.80;;;;;;;16.33;100.00;97643.00;5071909;28;20032;-75
2023/10/10 00:46:15;;;;;;;8.82;2.50;;;;;;;16.43;100.00;97632.28;5071905;28;20028;-75
2023/10/10 00:48:40;;;;;;;9.05;2.63;;;;;;;16.44;100.00;97639.41;5072124;28;20026;-75
2023/10/10 00:51:11;;;;;;;8.05;2.55;;;;;;;16.39;100.00;97645.19;5068692;28;20119;-75
2023/10/10 00:53:39;;;;;;;6.15;2.13;;;;;;;16.41;100.00;97639.66;5071951;28;20496;-75
2023/10/10 00:56:06;;;;;;;6.88;2.40;;;;;;;16.37;100.00;97635.47;5071566;28;20025;-75
2023/10/10 00:58:36;;;;;;;8.38;2.42;;;;;;;16.47;100.00;97641.84;5070604;28;20063;-75
2023/10/10 01:01:14;;;;;;;7.70;2.75;;;;;;;16.55;100.00;97640.22;5071618;28;20450;-76
2023/10/10 01:03:42;;;;;;;5.93;2.08;;;;;;;16.68;100.00;97631.94;5071512;28;20028;-74
2023/10/10 01:06:24;;;;;;;12.32;2.50;;;;;;;16.74;100.00;97635.00;5055022;28;20032;-75
2023/10/10 01:08:55;;;;;;;7.67;2.67;;;;;;;16.75;100.00;97631.31;5068777;28;20060;-75
2023/10/10 01:11:22;;;;;;;9.98;2.92;;;;;;;16.79;100.00;97624.66;5071600;28;20286;-75
2023/10/10 01:13:49;;;;;;;11.00;2.20;;;;;;;16.88;100.00;97622.16;5071255;28;20063;-75
2023/10/10 01:16:17;;;;;;;10.40;2.90;;;;;;;16.98;100.00;97633.88;5071561;28;20020;-75
2023/10/10 01:18:51;;;;;;;9.63;2.45;;;;;;;16.94;100.00;97619.78;5071267;28;20041;-75
2023/10/10 01:22:22;;;;;;;7.03;2.50;;;;;;;16.91;100.00;97627.28;5071203;28;20024;-75
2023/10/10 01:24:15;;;;;;;6.07;2.28;;;;;;;16.93;100.00;97617.19;5067925;28;20575;-76
2023/10/10 01:26:44;;;;;;;11.18;2.53;;;;;;;16.95;100.00;97620.63;5072098;28;20119;-74
2023/10/10 01:29:27;;;;;;;6.18;2.25;;;;;;;16.94;100.00;97606.28;5070948;28;20028;-74
2023/10/10 01:31:54;;;;;;;8.40;2.45;;;;;;;16.92;100.00;97620.91;5067965;28;20020;-75
2023/10/10 01:34:39;;;;;;;10.32;2.40;;;;;;;16.88;100.00;97627.56;5070937;28;20031;-75
2023/10/10 01:37:20;;;;;;;9.15;2.80;;;;;;;16.87;100.00;97642.03;5072813;28;20089;-75
2023/10/10 01:42:45;;;;;;;5.65;2.45;;;;;;;16.91;100.00;97632.69;5069543;28;20037;-75
2023/10/10 01:45:10;;;;;;;6.68;2.10;;;;;;;16.99;100.00;97639.16;5071471;28;20021;-75
2023/10/10 01:47:39;;;;;;;10.43;2.45;;;;;;;16.96;100.00;97634.00;5070725;28;20055;-76
2023/10/10 01:50:10;;;;;;;8.70;2.17;;;;;;;16.90;100.00;97639.94;5070914;28;20031;-75
2023/10/10 01:52:46;;;;;;;10.82;2.65;;;;;;;16.83;100.00;97643.31;5070529;28;20035;-75
2023/10/10 01:55:12;;;;;;;10.35;3.00;;;;;;;16.86;100.00;97643.88;5070803;28;20464;-75
2023/10/10 01:57:37;;;;;;;9.88;3.15;;;;;;;16.82;100.00;97644.28;5087395;28;20032;-75
2023/10/10 02:00:11;;;;;;;8.70;2.50;;;;;;;16.68;100.00;97640.91;5070427;28;20349;-76
2023/10/10 02:02:36;;;;;;;13.77;2.33;;;;;;;16.70;100.00;97643.50;5071602;28;20025;-76
2023/10/10 02:05:04;;;;;;;8.65;2.50;;;;;;;16.73;100.00;97633.25;5070489;28;20040;-76
2023/10/10 02:07:33;;;;;;;6.15;2.28;;;;;;;16.69;100.00;97634.53;5070569;28;20028;-76
2023/10/10 02:10:23;;;;;;;4.47;1.95;;;;;;;16.66;100.00;97634.78;5070330;28;20506;-76
2023/10/10 02:12:45;;;;;;;4.97;2.05;;;;;;;16.64;100.00;97630.53;5070885;28;20036;-76
2023/10/10 02:15:12;;;;;;;9.68;2.38;;;;;;;16.66;100.00;97632.09;5070202;28;20032;-76
2023/10/10 02:17:51;;;;;;;10.45;2.47;;;;;;;16.61;100.00;97631.59;5071303;28;20111;-76
2023/10/10 02:22:53;;;;;;;14.68;3.30;;;;;;;16.52;100.00;97643.16;5069943;28;20029;-76
2023/10/10 02:27:56;;;;;;;17.50;3.03;;;;;;;16.42;100.00;97658.44;5069990;28;20496;-74
2023/10/10 02:30:34;;;;;;;10.13;2.10;;;;;;;16.36;100.00;97655.38;5069812;28;20039;-76
2023/10/10 02:36:00;;;;;;;20.77;5.40;;;;;;;16.35;100.00;97656.38;5070072;28;20020;-75
2023/10/10 02:38:39;;;;;;;15.90;4.93;;;;;;;16.31;100.00;97655.75;5070655;28;20051;-75
2023/10/10 02:44:09;;;;;;;17.42;3.88;;;;;;;16.36;100.00;97642.75;5063656;28;20517;-75
2023/10/10 02:46:39;;;;;;;16.77;3.88;;;;;;;16.32;100.00;97649.38;5069559;28;20424;-75
2023/10/10 02:49:23;;;;;;;14.07;3.83;;;;;;;16.36;100.00;97645.44;5069975;28;20023;-75
2023/10/10 02:51:51;;;;;;;14.23;3.35;;;;;;;16.30;100.00;97635.16;5057292;28;20099;-75
2023/10/10 02:54:27;;;;;;;12.70;3.10;;;;;;;16.28;100.00;97654.19;5051326;28;20068;-75
2023/10/10 02:56:57;;;;;;;13.60;3.90;;;;;;;16.23;100.00;97658.25;5074744;28;20025;-75
2023/10/10 02:59:37;;;;;;;15.50;4.47;;;;;;;16.25;100.00;97657.13;5042041;28;20025;-75
2023/10/10 03:02:11;;;;;;;11.20;3.70;;;;;;;16.18;100.00;97668.59;5067245;28;20020;-76
2023/10/10 03:07:28;;;;;;;13.52;3.88;;;;;;;16.02;100.00;97665.41;5067337;28;20021;-76
2023/10/10 03:12:37;;;;;;;15.77;4.07;;;;;;;15.88;100.00;97666.53;5069436;28;20064;-76
2023/10/10 03:25:51;;;;;;;11.27;3.80;;;;;;;15.98;100.00;97666.66;5074566;28;20032;-76
2023/10/10 03:31:03;;;;;;;12.70;3.45;;;;;;;15.85;100.00;97660.53;5089670;28;20221;-75
2023/10/10 03:33:44;;;;;;;13.98;3.92;;;;;;;15.82;100.00;97658.06;5051987;28;20121;-75
2023/10/10 05:25:32;;;;;;;18.52;5.63;;;;;;;15.96;100.00;97749.56;5071936;28;20082;-73
2023/10/10 05:28:00;;;;;;;20.38;6.32;;;;;;;15.99;100.00;97739.38;5072377;28;20024;-74
2023/10/10 05:30:27;;;;;;;29.17;7.20;;;;;;;16.14;100.00;97745.38;5071793;28;20040;-74
2023/10/10 05:33:04;;;;;;;35.45;6.20;;;;;;;16.14;100.00;97758.88;5087820;28;20025;-74
2023/10/10 05:35:47;;;;;;;27.70;6.53;;;;;;;16.11;100.00;97762.69;5070803;28;20392;-74
2023/10/10 05:38:15;;;;;;;37.00;5.78;;;;;;;16.13;100.00;97766.09;5070647;28;20020;-73
2023/10/10 05:40:43;;;;;;;38.65;6.93;;;;;;;16.20;100.00;97761.94;5087266;28;20035;-72
2023/10/10 05:43:09;;;;;;;31.67;6.93;;;;;;;16.31;100.00;97769.16;5070824;28;20029;-74
2023/10/10 05:45:37;;;;;;;45.95;6.38;;;;;;;16.37;100.00;97765.94;5070011;28;20040;-74
2023/10/10 05:48:03;;;;;;;28.75;5.78;;;;;;;16.39;100.00;97766.69;5071940;28;20024;-73
2023/10/10 05:50:29;;;;;;;20.85;5.10;;;;;;;16.45;100.00;97766.19;5070653;28;20032;-74
2023/10/10 05:52:54;;;;;;;12.95;5.45;;;;;;;16.46;100.00;97764.31;5072026;28;20533;-74
2023/10/10 05:55:23;;;;;;;39.63;8.40;;;;;;;16.51;100.00;97764.81;5070224;28;20035;-73
2023/10/10 05:57:49;;;;;;;26.45;7.00;;;;;;;16.61;100.00;97774.75;5070449;28;20121;-75
2023/10/10 06:00:14;;;;;;;18.17;5.75;;;;;;;16.66;100.00;97772.56;5071706;28;20107;-73
2023/10/10 06:02:46;;;;;;;33.05;9.65;;;;;;;16.63;100.00;97772.81;5071479;28;20025;-74
2023/10/10 06:05:15;;;;;;;19.30;5.97;;;;;;;16.69;100.00;97772.31;5070484;28;20122;-74
2023/10/10 06:07:44;;;;;;;15.43;5.03;;;;;;;16.70;100.00;97768.59;5071146;28;20034;-73
2023/10/10 06:10:20;;;;;;;13.13;4.15;;;;;;;16.71;100.00;97773.03;5070230;28;20503;-73
2023/10/10 06:12:47;;;;;;;13.93;3.50;;;;;;;16.73;100.00;97765.63;5070287;28;20028;-74
2023/10/10 06:15:19;;;;;;;17.48;4.57;;;;;;;16.75;100.00;97779.03;5086932;28;20043;-73
2023/10/10 06:17:45;;;;;;;24.83;7.93;;;;;;;16.78;100.00;97773.38;5071297;28;20057;-74
2023/10/10 06:20:16;;;;;;;12.65;3.67;;;;;;;16.87;100.00;97769.03;5086774;28;20084;-73
2023/10/10 06:22:45;;;;;;;19.52;5.60;;;;;;;16.97;100.00;97778.97;5070167;28;20462;-73
2023/10/10 06:25:12;;;;;;;16.00;4.10;;;;;;;17.07;100.00;97779.88;5070011;28;20053;-74
2023/10/10 06:27:40;;;;;;;17.52;4.95;;;;;;;17.12;100.00;97790.31;5071441;28;20089;-73
2023/10/10 06:30:26;;;;;;;12.82;3.70;;;;;;;17.18;100.00;97792.50;5070035;28;20035;-74
2023/10/10 06:32:58;;;;;;;13.55;3.92;;;;;;;17.34;100.00;97795.63;5071057;28;20024;-74
2023/10/10 06:37:53;;;;;;;10.77;4.38;;;;;;;17.40;100.00;97802.34;5070148;28;20025;-74
2023/10/10 06:40:25;;;;;;;25.00;4.25;;;;;;;17.48;100.00;97799.84;5070159;28;20079;-74
2023/10/10 06:42:56;;;;;;;14.93;5.43;;;;;;;17.35;100.00;97809.00;5070887;28;20036;-74
2023/10/10 06:45:26;;;;;;;14.25;5.55;;;;;;;17.39;100.00;97806.03;5070348;28;20044;-74
2023/10/10 06:47:52;;;;;;;24.52;5.63;;;;;;;17.48;100.00;97811.53;5069846;28;20515;-74
2023/10/10 06:50:23;;;;;;;38.28;5.93;;;;;;;17.55;100.00;97809.19;5071279;28;20024;-75
2023/10/10 06:52:52;;;;;;;23.65;6.82;;;;;;;17.62;100.00;97807.69;5071366;28;20102;-74
2023/10/10 06:55:22;;;;;;;18.25;7.13;;;;;;;17.68;100.00;97812.56;5086574;28;20095;-73
2023/10/10 06:57:59;;;;;;;24.38;5.90;;;;;;;17.67;100.00;97811.69;5085992;28;20027;-73
2023/10/10 07:00:38;;;;;;;21.42;6.95;;;;;;;17.79;100.00;97821.47;5070116;28;20031;-73
2023/10/10 07:03:04;;;;;;;27.58;7.18;;;;;;;17.92;100.00;97823.97;5069809;28;20051;-73
2023/10/10 07:05:33;;;;;;;21.58;6.90;;;;;;;17.91;100.00;97822.25;5069797;28;20028;-74
2023/10/10 07:08:09;;;;;;;21.92;6.30;;;;;;;17.88;100.00;97831.50;5071086;28;20423;-74
2023/10/10 07:10:37;;;;;;;26.75;5.70;;;;;;;17.89;100.00;97832.34;5071087;28;20025;-73
2023/10/10 07:13:10;;;;;;;29.23;6.53;;;;;;;17.84;100.00;97842.72;5070907;28;20024;-74
2023/10/10 07:15:36;;;;;;;30.58;6.72;;;;;;;17.86;100.00;97843.44;5069771;28;20052;-74
2023/10/10 07:18:09;;;;;;;40.10;6.88;;;;;;;17.92;100.00;97842.03;5070841;28;20114;-74
2023/10/10 07:23:22;;;;;;;37.33;6.55;;;;;;;17.88;100.00;97846.88;5071139;28;20132;-73
2023/10/10 07:25:59;;;;;;;25.52;6.55;;;;;;;17.91;100.00;97851.16;5069873;28;20086;-73
2023/10/10 07:28:27;;;;;;;25.00;5.38;;;;;;;17.83;100.00;97859.94;5070900;28;20058;-73
2023/10/10 07:30:54;;;;;;;31.70;5.75;;;;;;;17.83;100.00;97858.09;5069500;28;20047;-73
2023/10/10 07:33:24;;;;;;;18.83;5.18;;;;;;;17.89;100.00;97856.72;5052769;28;20108;-73
2023/10/10 07:36:00;;;;;;;20.40;4.80;;;;;;;17.95;100.00;97863.44;5069633;28;20132;-73
2023/10/10 07:38:29;;;;;;;33.38;6.50;;;;;;;17.95;100.00;97864.31;5069536;28;20036;-73
2023/10/10 07:44:08;;;;;;;23.90;5.30;;;;;;;18.05;100.00;97856.25;5070557;28;20029;-72
2023/10/10 07:46:35;;;;;;;17.67;6.10;;;;;;;18.11;100.00;97863.81;5070546;28;20047;-73
2023/10/10 07:49:02;;;;;;;28.95;5.80;;;;;;;18.19;100.00;97872.13;5069249;28;20025;-73
2023/10/10 07:51:28;;;;;;;24.45;6.43;;;;;;;18.21;100.00;97870.16;5070618;28;20024;-73
2023/10/10 07:54:13;;;;;;;25.13;6.55;;;;;;;18.27;100.00;97877.75;5069284;28;20457;-73
2023/10/10 07:56:45;;;;;;;23.33;5.75;;;;;;;18.32;100.00;97873.63;5069710;28;20091;-72
2023/10/10 07:59:19;;;;;;;21.42;7.78;;;;;;;18.36;100.00;97871.53;5085592;28;20101;-73
2023/10/10 08:01:47;;;;;;;16.92;4.35;;;;;;;18.38;100.00;97877.66;5070637;28;20421;-73
2023/10/10 08:04:14;;;;;;;14.60;3.88;;;;;;;18.46;100.00;97885.13;5069286;28;20393;-74
2023/10/10 08:06:44;;;;;;;17.33;4.65;;;;;;;18.35;100.00;97876.06;5069455;28;20410;-74
2023/10/10 08:11:43;;;;;;;;;;;;;;;18.52;100.00;97885.44;5074594;28;20400;-74
2023/10/10 08:14:09;;;;;;;13.70;3.78;;;;;;;18.59;100.00;97881.19;5072659;28;20384;-74
2023/10/10 08:16:36;;;;;;;14.27;3.17;;;;;;;18.68;100.00;97888.50;5072671;28;20102;-74
2023/10/10 08:19:06;;;;;;;14.93;3.78;;;;;;;18.73;100.00;97886.25;5089353;28;20048;-73
2023/10/10 08:21:38;;;;;;;11.57;3.78;;;;;;;18.78;100.00;97889.41;5072586;28;20032;-73
2023/10/10 08:24:07;;;;;;;8.02;2.78;;;;;;;18.88;100.00;97884.03;5073003;28;20402;-74
2023/10/10 08:26:39;;;;;;;8.95;3.28;;;;;;;18.88;100.00;97887.59;5089263;28;20031;-74
2023/10/10 08:29:07;;;;;;;10.32;3.50;;;;;;;18.93;100.00;97879.03;5072473;28;20496;-73
2023/10/10 08:31:36;;;;;;;13.95;3.88;;;;;;;19.03;100.00;97881.78;5073667;28;20454;-74
2023/10/10 08:34:02;;;;;;;7.88;3.28;;;;;;;19.12;100.00;97887.22;5072388;28;20028;-74
2023/10/10 08:36:27;;;;;;;8.70;3.13;;;;;;;19.19;100.00;97885.69;5088774;28;20024;-74
2023/10/10 08:38:58;;;;;;;19.15;3.20;;;;;;;19.17;100.00;97876.78;5073567;28;20103;-73
2023/10/10 08:41:29;;;;;;;10.52;3.50;;;;;;;19.21;100.00;97880.09;5055221;28;20042;-74
2023/10/10 08:43:58;;;;;;;9.03;3.50;;;;;;;19.20;100.00;97883.78;5072093;28;20040;-73
2023/10/10 08:46:31;;;;;;;5.13;3.53;;;;;;;19.14;100.00;97882.50;5071915;28;20044;-74
2023/10/10 08:49:04;;;;;;;9.10;3.20;;;;;;;19.19;100.00;97879.38;5073445;28;20036;-74
2023/10/10 08:51:33;;;;;;;9.82;2.60;;;;;;;19.28;100.00;97870.41;5080793;28;20086;-73
2023/10/10 08:54:09;;;;;;;18.73;3.80;;;;;;;19.34;100.00;97875.25;5072224;28;20142;-74
2023/10/10 08:57:04;;;;;;;8.00;3.40;;;;;;;19.39;100.00;97882.00;5067862;28;20033;-73
2023/10/10 08:59:31;;;;;;;13.32;4.28;;;;;;;19.34;100.00;97877.97;5064128;28;20123;-73
2023/10/10 09:02:15;;;;;;;10.30;3.47;;;;;;;19.45;100.00;97881.44;5072862;28;20067;-73
2023/10/10 09:04:41;;;;;;;8.02;4.03;;;;;;;19.43;100.00;97875.31;5072292;28;20448;-72
2023/10/10 09:07:19;;;;;;;8.43;3.00;;;;;;;19.39;100.00;97889.25;5071433;28;20067;-73
2023/10/10 09:09:55;;;;;;;7.80;3.17;;;;;;;19.38;100.00;97879.41;5056268;28;20029;-73
2023/10/10 09:12:21;;;;;;;10.43;3.72;;;;;;;19.33;100.00;97892.53;5071412;28;20460;-73
2023/10/10 09:14:50;;;;;;;9.95;3.65;;;;;;;19.26;100.00;97894.06;5071285;28;20115;-72
2023/10/10 09:17:28;;;;;;;13.68;3.65;;;;;;;19.10;100.00;97900.06;5071049;28;20103;-73
2023/10/10 09:19:54;;;;;;;7.32;3.25;;;;;;;19.03;100.00;97889.91;5071583;28;20032;-73
2023/10/10 09:22:42;;;;;;;9.38;3.65;;;;;;;19.05;100.00;97891.47;5070884;28;20071;-73
2023/10/10 09:25:25;;;;;;;8.02;3.20;;;;;;;19.04;100.00;97897.06;5071458;28;20406;-73
2023/10/10 09:27:59;;;;;;;6.25;3.17;;;;;;;19.24;100.00;97896.09;5058683;28;20107;-73
2023/10/10 09:30:40;;;;;;;6.40;3.28;;;;;;;19.29;100.00;97893.78;5072398;28;20112;-73
2023/10/10 09:36:15;;;;;;;8.93;3.65;;;;;;;19.95;100.00;97893.00;5085765;28;20408;-73
2023/10/10 09:38:46;;;;;;;10.25;3.80;;;;;;;20.18;100.00;97888.09;5071259;28;20036;-73
2023/10/10 09:49:45;;;;;;;6.13;2.92;;;;;;;20.11;100.00;97884.25;5067385;28;20091;-74
2023/10/10 09:58:01;;;;;;;8.73;3.30;;;;;;;19.95;100.00;97893.00;5071709;28;20265;-73
2023/10/10 10:09:08;;;;;;;18.83;9.35;;;;;;;19.43;100.00;97909.72;5070483;28;20496;-74
2023/10/10 10:11:43;;;;;;;19.30;4.85;;;;;;;19.15;100.00;97916.78;5071622;28;20381;-73
2023/10/10 10:14:59;;;;;;;15.70;6.93;;;;;;;18.85;100.00;97931.25;5070444;28;20416;-74
2023/10/10 10:17:47;;;;;;;12.48;3.47;;;;;;;18.46;100.00;97934.72;5051460;28;20040;-74
2023/10/10 10:20:22;;;;;;;10.30;4.47;;;;;;;18.31;100.00;97941.47;5055266;28;20401;-73
2023/10/10 10:22:59;;;;;;;13.05;3.17;;;;;;;18.06;100.00;97940.03;5063851;28;20036;-72
2023/10/10 10:25:25;;;;;;;5.30;3.08;;;;;;;18.00;100.00;97947.81;5070085;28;20036;-74
2023/10/10 10:28:00;;;;;;;9.82;3.55;;;;;;;18.07;100.00;97946.31;5069671;28;20024;-74
2023/10/10 10:32:58;;;;;;;6.55;2.90;;;;;;;17.69;100.00;97944.13;5071242;28;20019;-76
2023/10/10 10:35:56;;;;;;;10.20;3.60;;;;;;;17.64;100.00;97933.72;5069313;28;20468;-76
2023/10/10 10:38:23;;;;;;;16.95;3.72;;;;;;;17.70;100.00;97929.63;5086061;28;20499;-78
2023/10/10 10:40:50;;;;;;;9.05;3.78;;;;;;;17.83;100.00;97925.75;5069699;28;20502;-76
2023/10/10 10:43:31;;;;;;;7.90;3.33;;;;;;;17.96;100.00;97925.59;5069913;28;20028;-76
2023/10/10 10:46:27;;;;;;;13.40;4.93;;;;;;;17.95;100.00;97928.41;5070080;28;20055;-76
2023/10/10 10:49:01;;;;;;;10.48;3.30;;;;;;;17.84;100.00;97918.50;5070274;28;20484;-76
2023/10/10 10:51:32;;;;;;;9.02;3.85;;;;;;;17.80;100.00;97915.19;5069645;28;20027;-77
2023/10/10 10:54:00;;;;;;;10.93;3.58;;;;;;;17.91;100.00;97919.69;5070845;28;20028;-75
2023/10/10 11:01:55;;;;;;;18.13;9.35;;;;;;;17.91;100.00;97916.97;5069176;28;20037;-76
2023/10/10 11:07:06;;;;;;;139.73;69.28;;;;;;;17.86;100.00;97914.69;5049431;28;20025;-76
2023/10/10 11:09:34;;;;;;;63.88;31.38;;;;;;;17.86;100.00;97909.25;5068835;28;20035;-76
2023/10/10 11:12:02;;;;;;;47.63;23.60;;;;;;;18.03;100.00;97910.50;5069040;28;20024;-77
2023/10/10 11:14:29;;;;;;;12.30;6.72;;;;;;;18.08;100.00;97907.41;5051991;28;20062;-78
2023/10/10 11:16:57;;;;;;;11.77;5.13;;;;;;;18.15;100.00;97908.63;5064967;28;20082;-78
2023/10/10 11:19:38;;;;;;;7.95;3.13;;;;;;;18.10;100.00;97906.28;5068882;28;20450;-77
2023/10/10 11:22:05;;;;;;;6.40;3.22;;;;;;;18.15;100.00;97898.59;5069086;28;20040;-77
2023/10/10 11:24:32;;;;;;;8.07;3.17;;;;;;;18.24;100.00;97903.22;5068554;28;20043;-78
2023/10/10 11:29:41;;;;;;;18.55;3.55;;;;;;;18.26;100.00;97906.69;5070369;28;20072;-76
2023/10/10 11:32:08;;;;;;;15.93;3.60;;;;;;;18.26;100.00;97898.56;5065109;28;20024;-75
2023/10/10 11:34:42;;;;;;;10.52;3.15;;;;;;;18.42;100.00;97892.66;5069048;28;20058;-74
2023/10/10 11:37:20;;;;;;;15.95;3.28;;;;;;;18.70;100.00;97905.47;5069141;28;20032;-75
2023/10/10 11:39:47;;;;;;;10.75;3.17;;;;;;;19.02;100.00;97890.91;5086139;28;20089;-78
2023/10/10 11:42:33;;;;;;;7.38;3.20;;;;;;;19.41;100.00;97892.75;5070106;28;20103;-78
2023/10/10 11:45:06;;;;;;;14.18;3.95;;;;;;;19.74;100.00;97897.75;5069287;28;20119;-79
2023/10/10 11:47:42;;;;;;;4.60;2.85;;;;;;;19.92;100.00;97878.84;5055634;28;20029;-78
2023/10/10 11:50:09;;;;;;;6.38;2.97;;;;;;;20.24;100.00;97878.53;5072482;28;20035;-79
2023/10/10 11:52:34;;;;;;;12.05;2.80;;;;;;;20.29;100.00;97878.97;5072299;28;20020;-77
2023/10/10 11:55:00;;;;;;;10.27;2.47;;;;;;;20.40;100.00;97873.34;5073700;28;20103;-76
2023/10/10 11:57:29;;;;;;;7.10;2.65;;;;;;;20.60;100.00;97874.13;5074103;28;20431;-76
2023/10/10 12:00:11;;;;;;;11.85;4.70;;;;;;;20.66;100.00;97871.69;5072523;28;20510;-76
2023/10/10 12:02:39;;;;;;;26.40;10.65;;;;;;;20.74;100.00;97862.75;5073540;28;20039;-76
2023/10/10 12:07:58;;;;;;;9.13;4.05;;;;;;;20.43;100.00;97883.91;5072734;28;20480;-75
2023/10/10 12:13:09;;;;;;;12.25;5.03;;;;;;;20.18;100.00;97876.41;5072653;28;20036;-73
2023/10/10 12:15:40;;;;;;;11.40;3.55;;;;;;;20.05;100.00;97878.56;5073626;28;20039;-75
2023/10/10 12:18:11;;;;;;;17.20;4.43;;;;;;;19.81;100.00;97885.28;5073418;28;20393;-74
2023/10/10 12:20:46;;;;;;;20.10;5.82;;;;;;;19.59;100.00;97876.59;5072179;28;20103;-74
2023/10/10 12:23:15;;;;;;;14.13;7.50;;;;;;;19.55;100.00;97880.59;5072212;28;20032;-74
2023/10/10 12:25:41;;;;;;;27.73;6.90;;;;;;;19.43;100.00;97878.03;5072122;28;20028;-75
2023/10/10 12:28:12;;;;;;;20.80;6.47;;;;;;;19.33;100.00;97884.38;5072283;28;20062;-75
2023/10/10 12:30:41;;;;;;;14.30;5.85;;;;;;;19.22;100.00;97887.25;5055597;28;20111;-74
2023/10/10 12:33:15;;;;;;;13.88;5.18;;;;;;;19.22;100.00;97888.09;5072299;28;20053;-74
2023/10/10 12:35:46;;;;;;;8.82;4.97;;;;;;;19.20;100.00;97881.06;5073500;28;20020;-74
2023/10/10 12:38:20;;;;;;;9.43;4.53;;;;;;;19.09;100.00;97890.22;5065117;28;20460;-74
2023/10/10 12:40:53;;;;;;;15.88;5.13;;;;;;;18.79;100.00;97888.44;5071961;28;20029;-76
2023/10/10 12:43:20;;;;;;;9.57;4.70;;;;;;;18.80;100.00;97892.81;5071534;28;20066;-76
2023/10/10 12:45:46;;;;;;;16.08;4.40;;;;;;;18.78;100.00;97889.41;5071390;28;20381;-76
2023/10/10 12:48:20;;;;;;;7.60;4.30;;;;;;;18.74;100.00;97878.97;5071089;28;20035;-76
2023/10/10 12:50:46;;;;;;;10.95;4.40;;;;;;;18.85;100.00;97884.31;5072279;28;20034;-75
2023/10/10 12:53:15;;;;;;;15.10;4.43;;;;;;;18.92;100.00;97882.72;5070924;28;20463;-75
2023/10/10 12:55:51;;;;;;;6.80;3.85;;;;;;;18.89;100.00;97886.59;5070857;28;20032;-76
2023/10/10 12:58:22;;;;;;;16.35;4.47;;;;;;;18.84;100.00;97886.16;5071359;28;20024;-77
2023/10/10 13:00:51;;;;;;;8.82;3.33;;;;;;;18.82;100.00;97885.44;5071136;28;20062;-76
2023/10/10 13:03:27;;;;;;;4.85;3.08;;;;;;;18.94;100.00;97886.19;5068473;28;20460;-77
2023/10/10 13:06:00;;;;;;;11.80;6.50;;;;;;;18.93;100.00;97877.19;5072343;28;20077;-75
2023/10/10 13:08:39;;;;;;;12.38;3.85;;;;;;;18.95;100.00;97887.88;5052747;28;20104;-75
2023/10/10 13:11:15;;;;;;;7.25;3.15;;;;;;;19.03;100.00;97890.78;5089242;28;20128;-76
2023/10/10 13:13:59;;;;;;;11.60;3.25;;;;;;;19.16;100.00;97885.09;5046930;28;20028;-76
2023/10/10 13:16:52;;;;;;;10.95;3.55;;;;;;;19.33;100.00;97876.25;5062794;28;20039;-76
2023/10/10 13:19:13;;;;;;;12.10;3.13;;;;;;;19.51;100.00;97876.44;5059770;28;20131;-76
2023/10/10 13:21:42;;;;;;;10.75;3.58;;;;;;;19.74;100.00;97876.03;5053365;28;20525;-76
2023/10/10 13:24:11;;;;;;;14.13;3.60;;;;;;;20.13;100.00;97873.25;5043712;28;20062;-76
2023/10/10 13:26:38;;;;;;;6.22;2.75;;;;;;;20.51;100.00;97870.44;5057220;28;20421;-74
2023/10/10 13:29:05;;;;;;;8.60;3.17;;;;;;;20.73;100.00;97867.38;5059065;28;20113;-73
2023/10/10 13:31:31;;;;;;;7.40;3.10;;;;;;;20.88;100.00;97865.00;5065170;28;20111;-73
2023/10/10 13:33:56;;;;;;;5.72;2.97;;;;;;;20.96;100.00;97859.63;5093895;28;20135;-74
2023/10/10 13:36:22;;;;;;;6.65;2.60;;;;;;;20.78;100.00;97859.59;5059458;28;20044;-74
2023/10/10 13:38:50;;;;;;;5.78;2.42;;;;;;;20.78;100.00;97862.31;5067090;28;20056;-74
2023/10/10 13:41:20;;;;;;;8.95;3.42;;;;;;;20.99;100.00;97860.19;5060767;28;20035;-75
2023/10/10 13:43:47;;;;;;;13.55;8.25;;;;;;;21.26;100.00;97853.03;5081276;28;20052;-73
2023/10/10 13:46:18;;;;;;;8.30;2.92;;;;;;;21.58;100.00;97856.09;5042507;28;20472;-73
2023/10/10 13:48:44;;;;;;;5.50;2.95;;;;;;;21.88;100.00;97854.81;5053402;28;20468;-73
2023/10/10 13:51:09;;;;;;;7.28;3.22;;;;;;;21.75;100.00;97840.75;5051878;28;20040;-74
2023/10/10 13:53:37;;;;;;;5.75;3.00;;;;;;;21.67;100.00;97849.69;5053678;28;20017;-74
2023/10/10 13:56:05;;;;;;;5.25;3.33;;;;;;;21.62;100.00;97841.16;5063554;28;20058;-72
2023/10/10 13:58:31;;;;;;;10.93;3.25;;;;;;;21.54;100.00;97847.38;5052767;28;20507;-72
2023/10/10 14:03:45;;;;;;;5.30;2.60;;;;;;;21.16;100.00;97838.66;5057530;28;20048;-74
2023/10/10 14:06:16;;;;;;;8.18;2.70;;;;;;;21.10;100.00;97845.56;5091594;28;20051;-74
2023/10/10 14:08:47;;;;;;;6.20;3.33;;;;;;;20.95;100.00;97842.47;5083717;28;20112;-73
2023/10/10 14:11:23;;;;;;;4.85;3.17;;;;;;;20.85;100.00;97846.25;5059163;28;20031;-72
2023/10/10 14:13:49;;;;;;;8.32;3.17;;;;;;;20.76;100.00;97849.88;5070441;28;20038;-73
2023/10/10 14:16:15;;;;;;;5.70;2.80;;;;;;;20.85;100.00;97852.56;5071329;28;20368;-73
2023/10/10 14:18:49;;;;;;;8.82;2.97;;;;;;;20.99;100.00;97862.91;5071286;28;20041;-74
2023/10/10 14:21:16;;;;;;;11.07;3.50;;;;;;;21.17;100.00;97856.66;5093355;28;20382;-75
2023/10/10 14:23:44;;;;;;;10.07;3.42;;;;;;;21.20;100.00;97857.22;5062822;28;20020;-73
2023/10/10 14:26:14;;;;;;;8.63;3.38;;;;;;;20.80;100.00;97871.16;5094775;28;20040;-74
2023/10/10 14:28:52;;;;;;;8.63;3.45;;;;;;;20.66;100.00;97868.97;5069980;28;20535;-75
2023/10/10 14:31:31;;;;;;;7.45;3.60;;;;;;;20.64;100.00;97873.66;5071023;28;20082;-73
2023/10/10 14:34:00;;;;;;;7.22;3.65;;;;;;;20.53;100.00;97872.00;5071268;28;20414;-74
2023/10/10 14:36:33;;;;;;;11.35;3.70;;;;;;;20.35;100.00;97878.38;5069995;28;20085;-73
2023/10/10 14:38:58;;;;;;;6.28;3.50;;;;;;;20.23;100.00;97876.78;5070024;28;20028;-73
2023/10/10 14:41:32;;;;;;;4.57;3.10;;;;;;;20.14;100.00;97869.53;5069834;28;20036;-74
2023/10/10 14:44:00;;;;;;;8.48;3.22;;;;;;;19.97;100.00;97877.41;5071188;28;20123;-73
2023/10/10 14:46:33;;;;;;;8.98;3.25;;;;;;;19.94;100.00;97877.69;5069823;28;20029;-74
2023/10/10 14:49:05;;;;;;;5.03;2.88;;;;;;;19.84;100.00;97885.00;5069680;28;20051;-74
2023/10/10 14:51:35;;;;;;;9.30;4.05;;;;;;;19.71;100.00;97889.88;5069829;28;20050;-74
2023/10/10 14:54:06;;;;;;;6.30;3.55;;;;;;;19.63;100.00;97892.44;5071165;28;20512;-73
2023/10/10 14:56:37;;;;;;;4.72;3.10;;;;;;;19.55;100.00;97899.59;5070713;28;20101;-73
2023/10/10 14:59:06;;;;;;;7.00;3.35;;;;;;;19.40;100.00;97897.31;5086426;28;20048;-73